createdAt,value
2022-10-12T00:02:14.882Z,7.68
2022-10-12T00:07:17.301Z,7.78
2022-10-12T00:12:19.548Z,6.53
2022-10-12T00:17:21.862Z,7.43
2022-10-12T00:22:24.203Z,6.75
2022-10-12T00:27:26.579Z,7.30
2022-10-12T00:32:28.861Z,6.05
2022-10-12T00:37:31.234Z,6.65
2022-10-12T00:42:33.576Z,7.10
2022-10-12T00:47:38.888Z,6.55
2022-10-12T00:52:47.142Z,7.10
2022-10-12T00:57:50.838Z,6.60
2022-10-12T01:02:54.314Z,6.53
2022-10-12T01:07:56.621Z,7.40
2022-10-12T01:12:59.637Z,7.75
2022-10-12T01:18:31.488Z,6.88
2022-10-12T01:24:11.093Z,7.35
2022-10-12T01:29:37.432Z,7.47
2022-10-12T01:35:02.271Z,6.57
2022-10-12T01:40:09.798Z,7.20
2022-10-12T01:45:14.811Z,5.68
2022-10-12T01:50:18.862Z,5.68
2022-10-12T01:55:32.468Z,5.65
2022-10-12T02:00:42.309Z,5.88
2022-10-12T02:06:23.112Z,7.15
2022-10-12T02:11:27.110Z,6.60
2022-10-12T02:16:33.427Z,6.68
2022-10-12T02:21:35.856Z,5.70
2022-10-12T02:26:40.824Z,5.75
2022-10-12T02:32:07.477Z,6.30
2022-10-12T02:37:21.705Z,6.07
2022-10-12T02:42:32.091Z,6.00
2022-10-12T02:47:37.756Z,6.65
2022-10-12T02:52:40.430Z,7.63
2022-10-12T02:57:42.819Z,7.38
2022-10-12T03:02:45.179Z,9.55
2022-10-12T03:07:47.465Z,8.90
2022-10-12T03:12:50.435Z,9.60
2022-10-12T03:17:52.946Z,8.50
2022-10-12T03:22:55.300Z,9.98
2022-10-12T03:27:57.632Z,10.68
2022-10-12T03:32:59.964Z,11.85
2022-10-12T03:38:02.344Z,23.38
2022-10-12T03:43:05.118Z,25.58
2022-10-12T03:48:08.037Z,17.48
2022-10-12T03:53:10.580Z,15.57
2022-10-12T03:58:13.551Z,12.38
2022-10-12T04:03:15.790Z,12.90
2022-10-12T04:08:18.094Z,12.63
2022-10-12T04:13:20.850Z,12.73
2022-10-12T04:18:23.077Z,12.60
2022-10-12T04:23:25.370Z,12.38
2022-10-12T04:28:27.696Z,12.75
2022-10-12T04:33:29.964Z,11.10
2022-10-12T04:38:32.308Z,11.30
2022-10-12T04:43:34.670Z,9.70
2022-10-12T04:48:37.013Z,10.35
2022-10-12T04:53:39.561Z,10.45
2022-10-12T04:58:41.935Z,10.95
2022-10-12T05:03:44.238Z,10.63
2022-10-12T05:08:46.554Z,11.20
2022-10-12T05:13:48.813Z,10.85
2022-10-12T05:18:51.150Z,18.58
2022-10-12T05:23:53.492Z,15.57
2022-10-12T05:28:55.856Z,12.20
2022-10-12T05:33:58.231Z,11.23
2022-10-12T05:39:00.587Z,12.38
2022-10-12T05:44:02.902Z,10.23
2022-10-12T05:49:05.605Z,10.95
2022-10-12T05:54:07.857Z,9.60
2022-10-12T05:59:11.514Z,10.18
2022-10-12T06:04:13.908Z,9.43
2022-10-12T06:09:16.338Z,9.43
2022-10-12T06:14:18.635Z,8.75
2022-10-12T06:19:20.976Z,9.40
2022-10-12T06:24:23.294Z,10.13
2022-10-12T06:29:25.602Z,9.82
2022-10-12T06:34:27.933Z,9.43
2022-10-12T06:39:30.296Z,9.65
2022-10-12T06:44:32.943Z,9.40
2022-10-12T06:49:35.292Z,9.52
2022-10-12T06:54:37.658Z,9.00
2022-10-12T06:59:40.242Z,10.40
2022-10-12T07:04:42.550Z,9.27
2022-10-12T07:09:44.879Z,8.68
2022-10-12T07:14:47.139Z,8.40
2022-10-12T07:19:49.446Z,9.13
2022-10-12T07:24:51.745Z,8.50
2022-10-12T07:29:54.014Z,7.93
2022-10-12T07:34:56.292Z,8.02
2022-10-12T07:39:58.626Z,7.65
2022-10-12T07:45:00.931Z,8.32
2022-10-12T07:50:03.198Z,8.60
2022-10-12T07:55:05.868Z,8.05
2022-10-12T08:00:08.667Z,7.90
2022-10-12T08:05:13.866Z,7.88
2022-10-12T08:10:16.744Z,8.43
2022-10-12T08:15:19.230Z,9.18
2022-10-12T08:20:21.622Z,8.43
2022-10-12T08:25:23.955Z,8.43
2022-10-12T08:30:27.177Z,7.18
2022-10-12T08:35:29.569Z,6.47
2022-10-12T08:40:35.407Z,8.00
2022-10-12T08:45:52.507Z,8.32
2022-10-12T08:56:04.846Z,5.68
2022-10-12T09:01:38.608Z,5.07
2022-10-12T09:06:44.929Z,5.72
2022-10-12T09:11:47.170Z,4.53
2022-10-12T09:16:50.565Z,4.45
2022-10-12T09:21:52.901Z,4.95
2022-10-12T09:27:00.632Z,4.30
2022-10-12T09:32:21.705Z,4.88
2022-10-12T09:37:27.063Z,3.55
2022-10-12T09:42:29.341Z,3.00
2022-10-12T09:47:33.321Z,3.53
2022-10-12T09:52:45.040Z,3.78
2022-10-12T09:57:54.818Z,4.25
2022-10-12T10:02:57.853Z,4.35
2022-10-12T10:08:21.234Z,4.57
2022-10-12T10:13:26.194Z,3.80
2022-10-12T10:18:59.651Z,3.10
2022-10-12T10:24:06.997Z,4.00
2022-10-12T10:29:22.773Z,4.30
2022-10-12T10:34:25.340Z,4.72
2022-10-12T10:39:31.591Z,3.90
2022-10-12T10:44:34.507Z,4.10
2022-10-12T10:49:51.302Z,4.00
2022-10-12T10:55:11.776Z,3.95
2022-10-12T11:00:37.871Z,3.47
2022-10-12T11:05:46.287Z,2.55
2022-10-12T11:10:57.186Z,2.83
2022-10-12T11:16:15.015Z,2.72
2022-10-12T11:21:55.601Z,1.92
2022-10-12T11:27:04.125Z,2.00
2022-10-12T11:32:15.203Z,2.45
2022-10-12T11:37:22.848Z,2.97
2022-10-12T11:47:44.146Z,1.65
2022-10-12T11:52:48.362Z,1.63
2022-10-12T11:57:51.647Z,2.10
2022-10-12T12:03:03.343Z,1.85
2022-10-12T12:08:05.723Z,1.80
2022-10-12T12:13:14.901Z,1.90
2022-10-12T12:18:21.608Z,1.58
2022-10-12T12:23:38.529Z,1.48
2022-10-12T12:28:47.125Z,1.70
2022-10-12T12:33:52.143Z,2.00
2022-10-12T12:38:54.891Z,1.85
2022-10-12T12:43:57.290Z,1.92
2022-10-12T12:49:00.347Z,2.63
2022-10-12T12:54:19.160Z,2.42
2022-10-12T12:59:48.776Z,1.95
2022-10-12T13:05:21.139Z,1.77
2022-10-12T13:10:39.818Z,2.80
2022-10-12T13:15:42.070Z,2.58
2022-10-12T13:20:47.580Z,2.42
2022-10-12T13:25:57.109Z,2.92
2022-10-12T13:31:22.261Z,2.83
2022-10-12T13:36:27.320Z,2.75
2022-10-12T13:41:30.577Z,2.17
2022-10-12T13:46:46.292Z,2.95
2022-10-12T13:51:52.172Z,1.90
2022-10-12T13:57:01.215Z,3.95
2022-10-12T14:02:04.168Z,3.40
2022-10-12T14:07:08.493Z,2.92
2022-10-12T14:12:11.971Z,2.95
2022-10-12T14:17:19.139Z,2.30
2022-10-12T14:22:25.349Z,2.70
2022-10-12T14:27:29.480Z,1.98
2022-10-12T14:32:41.243Z,2.50
2022-10-12T14:37:43.529Z,3.08
2022-10-12T14:43:01.151Z,3.45
2022-10-12T14:48:05.156Z,4.88
2022-10-12T14:53:11.710Z,4.30
2022-10-12T14:58:16.570Z,7.55
2022-10-12T15:03:20.306Z,11.50
2022-10-12T15:08:22.810Z,16.13
2022-10-12T15:13:25.299Z,11.93
2022-10-12T15:18:27.993Z,18.92
2022-10-12T15:23:30.358Z,18.35
2022-10-12T15:28:33.217Z,17.73
2022-10-12T15:33:35.558Z,17.58
2022-10-12T15:38:37.848Z,15.10
2022-10-12T15:43:42.062Z,12.95
2022-10-12T15:48:44.774Z,13.10
2022-10-12T15:53:47.173Z,13.00
2022-10-12T15:58:49.810Z,14.10
2022-10-12T16:03:52.165Z,12.70
2022-10-12T16:08:54.463Z,7.43
2022-10-12T16:13:57.118Z,6.35
2022-10-12T16:18:59.606Z,6.65
2022-10-12T16:24:01.862Z,8.38
2022-10-12T16:29:04.205Z,36.03
2022-10-12T16:34:06.458Z,77.47
2022-10-12T16:39:08.958Z,21.80
2022-10-12T16:44:11.233Z,14.13
2022-10-12T16:49:13.590Z,8.82
2022-10-12T16:54:16.294Z,9.38
2022-10-12T16:59:18.714Z,7.13
2022-10-12T17:04:21.249Z,5.55
2022-10-12T17:09:23.638Z,5.22
2022-10-12T17:14:26.528Z,6.20
2022-10-12T17:19:32.219Z,5.82
2022-10-12T17:24:36.170Z,8.35
2022-10-12T17:29:42.171Z,15.48
2022-10-12T17:34:45.122Z,15.40
2022-10-12T17:39:50.517Z,14.77
2022-10-12T17:44:52.828Z,13.52
2022-10-12T17:49:55.211Z,13.70
2022-10-12T17:54:57.517Z,12.00
2022-10-12T18:00:00.028Z,10.82
2022-10-12T18:05:02.431Z,12.35
2022-10-12T18:10:05.925Z,11.68
2022-10-12T18:15:08.667Z,10.90
2022-10-12T18:20:11.788Z,11.80
2022-10-12T18:25:15.662Z,14.05
2022-10-12T18:30:18.001Z,14.32
2022-10-12T18:35:20.554Z,11.32
2022-10-12T18:40:23.028Z,11.77
2022-10-12T18:45:25.346Z,10.80
2022-10-12T18:50:27.738Z,12.05
2022-10-12T18:55:30.059Z,27.25
2022-10-12T19:00:32.777Z,30.15
2022-10-12T19:05:35.265Z,32.88
2022-10-12T19:10:41.003Z,42.58
2022-10-12T19:15:43.360Z,41.03
2022-10-12T19:20:45.631Z,30.52
2022-10-12T19:25:48.293Z,26.80
2022-10-12T19:30:50.653Z,18.83
2022-10-12T19:35:53.189Z,22.42
2022-10-12T19:40:55.449Z,30.42
2022-10-12T19:46:02.845Z,31.77
2022-10-12T19:51:08.365Z,35.67
2022-10-12T19:56:14.119Z,55.53
2022-10-12T20:01:30.799Z,52.30
2022-10-12T20:06:33.261Z,33.17
2022-10-12T20:11:35.868Z,13.77
2022-10-12T20:16:38.414Z,11.50
2022-10-12T20:21:40.707Z,10.32
2022-10-12T20:26:43.652Z,10.07
2022-10-12T20:31:45.925Z,9.95
2022-10-12T20:36:48.265Z,11.98
2022-10-12T20:41:50.577Z,12.65
2022-10-12T20:46:52.951Z,12.25
2022-10-12T20:51:55.295Z,13.68
2022-10-12T20:56:57.729Z,12.93
2022-10-12T21:02:00.019Z,13.70
2022-10-12T21:07:02.273Z,13.35
2022-10-12T21:12:04.681Z,13.18
2022-10-12T21:17:06.978Z,12.30
2022-10-12T21:22:09.508Z,11.10
2022-10-12T21:27:11.757Z,11.40
2022-10-12T21:32:14.027Z,10.82
2022-10-12T21:37:16.387Z,11.95
2022-10-12T21:42:19.019Z,13.68
2022-10-12T21:47:21.575Z,12.60
2022-10-12T21:52:23.934Z,12.98
2022-10-12T21:57:26.236Z,15.57
2022-10-12T22:02:28.488Z,14.05
2022-10-12T22:07:30.815Z,14.73
2022-10-12T22:12:33.501Z,12.68
2022-10-12T22:17:36.073Z,14.13
2022-10-12T22:22:38.399Z,16.08
2022-10-12T22:27:40.722Z,19.35
2022-10-12T22:32:43.015Z,22.67
2022-10-12T22:37:45.572Z,19.73
2022-10-12T22:42:47.810Z,19.85
2022-10-12T22:47:50.038Z,19.52
2022-10-12T22:52:52.323Z,19.30
2022-10-12T22:57:54.591Z,22.15
2022-10-12T23:02:56.834Z,21.77
2022-10-12T23:07:59.548Z,20.00
2022-10-12T23:13:01.863Z,22.48
2022-10-12T23:18:04.435Z,20.42
2022-10-12T23:23:06.972Z,21.30
2022-10-12T23:28:09.237Z,21.85
2022-10-12T23:33:11.482Z,21.80
2022-10-12T23:38:14.137Z,20.85
2022-10-12T23:43:16.398Z,22.83
2022-10-12T23:48:18.783Z,22.27
2022-10-12T23:53:22.225Z,22.13
2022-10-12T23:58:24.581Z,22.52
